sensor_id;sensor_type;location;lat;lon;timestamp;P1;durP1;ratioP1;P2;durP2;ratioP2
15958;SDS011;8078;47.822;9.402;2023-07-22T00:00:44;2.85;;;1.92;;
15958;SDS011;8078;47.822;9.402;2023-07-22T00:03:10;4.15;;;2.00;;
15958;SDS011;8078;47.822;9.402;2023-07-22T00:05:36;2.58;;;1.80;;
15958;SDS011;8078;47.822;9.402;2023-07-22T00:08:01;2.67;;;1.70;;
15958;SDS011;8078;47.822;9.402;2023-07-22T00:10:27;2.75;;;1.98;;
15958;SDS011;8078;47.822;9.402;2023-07-22T00:12:53;2.20;;;1.90;;
15958;SDS011;8078;47.822;9.402;2023-07-22T00:15:18;2.60;;;1.80;;
15958;SDS011;8078;47.822;9.402;2023-07-22T00:17:45;2.33;;;1.80;;
15958;SDS011;8078;47.822;9.402;2023-07-22T00:20:11;4.10;;;1.90;;
15958;SDS011;8078;47.822;9.402;2023-07-22T00:22:37;3.03;;;2.00;;
15958;SDS011;8078;47.822;9.402;2023-07-22T00:25:05;2.85;;;1.83;;
15958;SDS011;8078;47.822;9.402;2023-07-22T00:27:40;2.90;;;1.77;;
15958;SDS011;8078;47.822;9.402;2023-07-22T00:30:07;3.50;;;2.20;;
15958;SDS011;8078;47.822;9.402;2023-07-22T00:32:33;2.97;;;2.03;;
15958;SDS011;8078;47.822;9.402;2023-07-22T00:34:59;2.30;;;2.08;;
15958;SDS011;8078;47.822;9.402;2023-07-22T00:37:24;3.30;;;2.15;;
15958;SDS011;8078;47.822;9.402;2023-07-22T00:39:50;2.42;;;1.98;;
15958;SDS011;8078;47.822;9.402;2023-07-22T00:42:16;2.67;;;2.28;;
15958;SDS011;8078;47.822;9.402;2023-07-22T00:44:41;3.95;;;2.30;;
15958;SDS011;8078;47.822;9.402;2023-07-22T00:47:07;2.30;;;2.10;;
15958;SDS011;8078;47.822;9.402;2023-07-22T00:49:33;3.30;;;2.20;;
15958;SDS011;8078;47.822;9.402;2023-07-22T00:52:00;4.30;;;2.35;;
15958;SDS011;8078;47.822;9.402;2023-07-22T00:54:29;3.55;;;2.25;;
15958;SDS011;8078;47.822;9.402;2023-07-22T00:56:56;2.30;;;1.83;;
15958;SDS011;8078;47.822;9.402;2023-07-22T00:59:22;2.63;;;1.85;;
15958;SDS011;8078;47.822;9.402;2023-07-22T01:01:49;2.33;;;1.95;;
15958;SDS011;8078;47.822;9.402;2023-07-22T01:04:15;4.30;;;2.10;;
15958;SDS011;8078;47.822;9.402;2023-07-22T01:06:42;3.85;;;1.98;;
15958;SDS011;8078;47.822;9.402;2023-07-22T01:09:09;2.60;;;1.90;;
15958;SDS011;8078;47.822;9.402;2023-07-22T01:11:34;2.78;;;1.85;;
15958;SDS011;8078;47.822;9.402;2023-07-22T01:14:00;3.70;;;1.95;;
15958;SDS011;8078;47.822;9.402;2023-07-22T01:16:27;2.45;;;2.00;;
15958;SDS011;8078;47.822;9.402;2023-07-22T01:18:53;5.43;;;1.98;;
15958;SDS011;8078;47.822;9.402;2023-07-22T01:21:20;2.10;;;1.90;;
15958;SDS011;8078;47.822;9.402;2023-07-22T01:23:47;2.45;;;1.90;;
15958;SDS011;8078;47.822;9.402;2023-07-22T01:26:13;2.60;;;2.22;;
15958;SDS011;8078;47.822;9.402;2023-07-22T01:28:39;2.88;;;1.85;;
15958;SDS011;8078;47.822;9.402;2023-07-22T01:31:05;3.63;;;2.08;;
15958;SDS011;8078;47.822;9.402;2023-07-22T01:33:31;2.10;;;1.88;;
15958;SDS011;8078;47.822;9.402;2023-07-22T01:35:57;3.03;;;2.30;;
15958;SDS011;8078;47.822;9.402;2023-07-22T01:38:23;4.00;;;2.08;;
15958;SDS011;8078;47.822;9.402;2023-07-22T01:40:49;2.67;;;2.17;;
15958;SDS011;8078;47.822;9.402;2023-07-22T01:43:14;3.20;;;2.25;;
15958;SDS011;8078;47.822;9.402;2023-07-22T01:45:40;2.50;;;2.17;;
15958;SDS011;8078;47.822;9.402;2023-07-22T01:48:05;4.35;;;2.10;;
15958;SDS011;8078;47.822;9.402;2023-07-22T01:50:31;4.18;;;2.38;;
15958;SDS011;8078;47.822;9.402;2023-07-22T01:52:57;4.30;;;2.20;;
15958;SDS011;8078;47.822;9.402;2023-07-22T01:55:23;2.58;;;2.20;;
15958;SDS011;8078;47.822;9.402;2023-07-22T01:57:48;2.88;;;2.40;;
15958;SDS011;8078;47.822;9.402;2023-07-22T02:00:14;3.75;;;2.40;;
15958;SDS011;8078;47.822;9.402;2023-07-22T02:02:40;5.88;;;2.70;;
15958;SDS011;8078;47.822;9.402;2023-07-22T02:05:08;4.80;;;2.42;;
15958;SDS011;8078;47.822;9.402;2023-07-22T02:07:35;3.03;;;2.38;;
15958;SDS011;8078;47.822;9.402;2023-07-22T02:10:01;3.53;;;2.33;;
15958;SDS011;8078;47.822;9.402;2023-07-22T02:12:26;3.50;;;2.42;;
15958;SDS011;8078;47.822;9.402;2023-07-22T02:14:52;3.30;;;2.50;;
15958;SDS011;8078;47.822;9.402;2023-07-22T02:17:17;4.90;;;3.13;;
15958;SDS011;8078;47.822;9.402;2023-07-22T02:19:43;6.00;;;4.63;;
15958;SDS011;8078;47.822;9.402;2023-07-22T02:22:08;5.43;;;4.20;;
15958;SDS011;8078;47.822;9.402;2023-07-22T02:24:34;8.38;;;5.18;;
15958;SDS011;8078;47.822;9.402;2023-07-22T02:27:00;7.22;;;5.43;;
15958;SDS011;8078;47.822;9.402;2023-07-22T02:29:26;6.53;;;5.68;;
15958;SDS011;8078;47.822;9.402;2023-07-22T02:31:51;9.38;;;6.35;;
15958;SDS011;8078;47.822;9.402;2023-07-22T02:34:17;11.55;;;7.35;;
15958;SDS011;8078;47.822;9.402;2023-07-22T02:36:42;10.43;;;8.13;;
15958;SDS011;8078;47.822;9.402;2023-07-22T02:39:08;10.48;;;7.95;;
15958;SDS011;8078;47.822;9.402;2023-07-22T02:41:36;11.18;;;7.78;;
15958;SDS011;8078;47.822;9.402;2023-07-22T02:44:02;9.70;;;7.57;;
15958;SDS011;8078;47.822;9.402;2023-07-22T02:46:31;11.90;;;7.60;;
15958;SDS011;8078;47.822;9.402;2023-07-22T02:48:57;10.25;;;6.30;;
15958;SDS011;8078;47.822;9.402;2023-07-22T02:51:24;9.13;;;6.57;;
15958;SDS011;8078;47.822;9.402;2023-07-22T02:53:49;9.05;;;7.22;;
15958;SDS011;8078;47.822;9.402;2023-07-22T02:56:15;12.95;;;8.13;;
15958;SDS011;8078;47.822;9.402;2023-07-22T02:58:40;8.77;;;7.10;;
15958;SDS011;8078;47.822;9.402;2023-07-22T03:01:07;8.80;;;6.53;;
15958;SDS011;8078;47.822;9.402;2023-07-22T03:03:33;8.77;;;5.55;;
15958;SDS011;8078;47.822;9.402;2023-07-22T03:06:00;8.68;;;5.47;;
15958;SDS011;8078;47.822;9.402;2023-07-22T03:08:26;7.53;;;5.22;;
15958;SDS011;8078;47.822;9.402;2023-07-22T03:10:51;5.78;;;4.53;;
15958;SDS011;8078;47.822;9.402;2023-07-22T03:13:17;7.18;;;4.72;;
15958;SDS011;8078;47.822;9.402;2023-07-22T03:15:43;4.85;;;4.22;;
15958;SDS011;8078;47.822;9.402;2023-07-22T03:18:09;5.50;;;4.28;;
15958;SDS011;8078;47.822;9.402;2023-07-22T03:20:35;4.95;;;4.38;;
15958;SDS011;8078;47.822;9.402;2023-07-22T03:23:02;6.75;;;4.65;;
15958;SDS011;8078;47.822;9.402;2023-07-22T03:25:28;7.15;;;4.28;;
15958;SDS011;8078;47.822;9.402;2023-07-22T03:27:53;5.80;;;3.72;;
15958;SDS011;8078;47.822;9.402;2023-07-22T03:30:20;6.22;;;3.72;;
15958;SDS011;8078;47.822;9.402;2023-07-22T03:32:47;5.53;;;3.55;;
15958;SDS011;8078;47.822;9.402;2023-07-22T03:35:15;6.68;;;3.40;;
15958;SDS011;8078;47.822;9.402;2023-07-22T03:37:43;4.32;;;3.42;;
15958;SDS011;8078;47.822;9.402;2023-07-22T03:40:09;4.88;;;3.70;;
15958;SDS011;8078;47.822;9.402;2023-07-22T03:42:48;5.22;;;3.45;;
15958;SDS011;8078;47.822;9.402;2023-07-22T03:45:15;4.53;;;3.22;;
15958;SDS011;8078;47.822;9.402;2023-07-22T03:47:44;4.55;;;3.83;;
15958;SDS011;8078;47.822;9.402;2023-07-22T03:50:10;4.90;;;3.38;;
15958;SDS011;8078;47.822;9.402;2023-07-22T03:52:36;5.97;;;3.53;;
15958;SDS011;8078;47.822;9.402;2023-07-22T03:55:02;7.03;;;3.67;;
15958;SDS011;8078;47.822;9.402;2023-07-22T03:57:28;4.80;;;3.60;;
15958;SDS011;8078;47.822;9.402;2023-07-22T03:59:54;5.63;;;3.53;;
15958;SDS011;8078;47.822;9.402;2023-07-22T04:02:20;4.53;;;3.10;;
15958;SDS011;8078;47.822;9.402;2023-07-22T04:04:46;4.78;;;3.30;;
15958;SDS011;8078;47.822;9.402;2023-07-22T04:07:12;4.38;;;3.50;;
15958;SDS011;8078;47.822;9.402;2023-07-22T04:09:37;4.20;;;3.80;;
15958;SDS011;8078;47.822;9.402;2023-07-22T04:12:03;5.03;;;4.18;;
15958;SDS011;8078;47.822;9.402;2023-07-22T04:14:29;8.52;;;4.75;;
15958;SDS011;8078;47.822;9.402;2023-07-22T04:16:55;8.38;;;5.65;;
15958;SDS011;8078;47.822;9.402;2023-07-22T04:19:21;9.27;;;5.53;;
15958;SDS011;8078;47.822;9.402;2023-07-22T04:21:50;7.53;;;6.93;;
15958;SDS011;8078;47.822;9.402;2023-07-22T04:24:16;8.00;;;7.30;;
15958;SDS011;8078;47.822;9.402;2023-07-22T04:26:42;6.45;;;5.68;;
15958;SDS011;8078;47.822;9.402;2023-07-22T04:29:08;7.70;;;5.28;;
15958;SDS011;8078;47.822;9.402;2023-07-22T04:31:34;9.02;;;5.57;;
15958;SDS011;8078;47.822;9.402;2023-07-22T04:34:00;9.48;;;7.53;;
15958;SDS011;8078;47.822;9.402;2023-07-22T04:36:25;8.95;;;7.50;;
15958;SDS011;8078;47.822;9.402;2023-07-22T04:38:51;6.55;;;5.85;;
15958;SDS011;8078;47.822;9.402;2023-07-22T04:41:16;6.47;;;5.13;;
15958;SDS011;8078;47.822;9.402;2023-07-22T04:43:42;5.93;;;5.28;;
15958;SDS011;8078;47.822;9.402;2023-07-22T04:46:07;5.13;;;4.63;;
15958;SDS011;8078;47.822;9.402;2023-07-22T04:48:33;6.40;;;4.78;;
15958;SDS011;8078;47.822;9.402;2023-07-22T04:50:59;6.80;;;4.35;;
15958;SDS011;8078;47.822;9.402;2023-07-22T04:53:24;8.15;;;4.97;;
15958;SDS011;8078;47.822;9.402;2023-07-22T04:55:50;6.43;;;4.85;;
15958;SDS011;8078;47.822;9.402;2023-07-22T04:58:15;5.30;;;4.10;;
15958;SDS011;8078;47.822;9.402;2023-07-22T05:00:41;3.88;;;3.45;;
15958;SDS011;8078;47.822;9.402;2023-07-22T05:03:08;4.55;;;3.40;;
15958;SDS011;8078;47.822;9.402;2023-07-22T05:05:33;5.65;;;3.63;;
15958;SDS011;8078;47.822;9.402;2023-07-22T05:07:59;5.68;;;4.28;;
15958;SDS011;8078;47.822;9.402;2023-07-22T05:10:24;6.05;;;4.80;;
15958;SDS011;8078;47.822;9.402;2023-07-22T05:12:50;6.80;;;4.80;;
15958;SDS011;8078;47.822;9.402;2023-07-22T05:15:15;5.85;;;4.80;;
15958;SDS011;8078;47.822;9.402;2023-07-22T05:17:41;5.72;;;4.93;;
15958;SDS011;8078;47.822;9.402;2023-07-22T05:20:07;6.50;;;5.10;;
15958;SDS011;8078;47.822;9.402;2023-07-22T05:22:39;6.60;;;5.50;;
15958;SDS011;8078;47.822;9.402;2023-07-22T05:25:05;5.68;;;5.07;;
15958;SDS011;8078;47.822;9.402;2023-07-22T05:27:32;6.95;;;4.90;;
15958;SDS011;8078;47.822;9.402;2023-07-22T05:30:00;7.32;;;4.53;;
15958;SDS011;8078;47.822;9.402;2023-07-22T05:32:25;7.55;;;4.97;;
15958;SDS011;8078;47.822;9.402;2023-07-22T05:34:54;6.65;;;4.70;;
15958;SDS011;8078;47.822;9.402;2023-07-22T05:37:19;6.72;;;4.32;;
15958;SDS011;8078;47.822;9.402;2023-07-22T05:39:45;4.72;;;3.30;;
15958;SDS011;8078;47.822;9.402;2023-07-22T05:42:10;6.28;;;3.67;;
15958;SDS011;8078;47.822;9.402;2023-07-22T05:44:36;5.65;;;3.83;;
15958;SDS011;8078;47.822;9.402;2023-07-22T05:47:01;7.63;;;4.10;;
15958;SDS011;8078;47.822;9.402;2023-07-22T05:49:27;5.68;;;3.85;;
15958;SDS011;8078;47.822;9.402;2023-07-22T05:51:53;5.40;;;4.75;;
15958;SDS011;8078;47.822;9.402;2023-07-22T05:54:19;7.70;;;4.60;;
15958;SDS011;8078;47.822;9.402;2023-07-22T05:56:45;6.40;;;4.60;;
15958;SDS011;8078;47.822;9.402;2023-07-22T05:59:11;6.95;;;4.35;;
15958;SDS011;8078;47.822;9.402;2023-07-22T06:01:37;8.60;;;5.07;;
15958;SDS011;8078;47.822;9.402;2023-07-22T06:04:03;5.60;;;4.88;;
15958;SDS011;8078;47.822;9.402;2023-07-22T06:06:29;5.97;;;5.22;;
15958;SDS011;8078;47.822;9.402;2023-07-22T06:08:55;8.10;;;5.40;;
15958;SDS011;8078;47.822;9.402;2023-07-22T06:11:21;6.88;;;5.18;;
15958;SDS011;8078;47.822;9.402;2023-07-22T06:13:46;8.18;;;5.95;;
15958;SDS011;8078;47.822;9.402;2023-07-22T06:16:12;7.47;;;6.03;;
15958;SDS011;8078;47.822;9.402;2023-07-22T06:18:37;6.45;;;5.40;;
15958;SDS011;8078;47.822;9.402;2023-07-22T06:21:03;7.32;;;5.50;;
15958;SDS011;8078;47.822;9.402;2023-07-22T06:23:29;8.35;;;5.38;;
15958;SDS011;8078;47.822;9.402;2023-07-22T06:25:55;7.35;;;5.43;;
15958;SDS011;8078;47.822;9.402;2023-07-22T06:28:20;5.95;;;4.45;;
15958;SDS011;8078;47.822;9.402;2023-07-22T06:30:46;5.78;;;4.00;;
15958;SDS011;8078;47.822;9.402;2023-07-22T06:33:12;5.72;;;4.50;;
15958;SDS011;8078;47.822;9.402;2023-07-22T06:35:37;7.13;;;4.25;;
15958;SDS011;8078;47.822;9.402;2023-07-22T06:38:03;5.53;;;4.40;;
15958;SDS011;8078;47.822;9.402;2023-07-22T06:40:28;4.97;;;4.13;;
15958;SDS011;8078;47.822;9.402;2023-07-22T06:42:54;5.28;;;4.05;;
15958;SDS011;8078;47.822;9.402;2023-07-22T06:45:19;6.85;;;4.30;;
15958;SDS011;8078;47.822;9.402;2023-07-22T06:47:45;4.03;;;3.17;;
15958;SDS011;8078;47.822;9.402;2023-07-22T06:50:11;5.72;;;3.83;;
15958;SDS011;8078;47.822;9.402;2023-07-22T06:52:37;4.05;;;3.17;;
15958;SDS011;8078;47.822;9.402;2023-07-22T06:55:03;3.08;;;2.55;;
15958;SDS011;8078;47.822;9.402;2023-07-22T06:57:30;4.75;;;2.92;;
15958;SDS011;8078;47.822;9.402;2023-07-22T06:59:55;4.32;;;2.70;;
15958;SDS011;8078;47.822;9.402;2023-07-22T07:02:21;4.18;;;2.58;;
15958;SDS011;8078;47.822;9.402;2023-07-22T07:04:47;3.47;;;2.38;;
15958;SDS011;8078;47.822;9.402;2023-07-22T07:07:13;3.75;;;2.88;;
15958;SDS011;8078;47.822;9.402;2023-07-22T07:09:39;2.78;;;2.58;;
15958;SDS011;8078;47.822;9.402;2023-07-22T07:12:05;4.60;;;2.88;;
15958;SDS011;8078;47.822;9.402;2023-07-22T07:14:32;5.18;;;3.20;;
15958;SDS011;8078;47.822;9.402;2023-07-22T07:16:59;5.13;;;2.85;;
15958;SDS011;8078;47.822;9.402;2023-07-22T07:19:25;3.88;;;2.92;;
15958;SDS011;8078;47.822;9.402;2023-07-22T07:21:51;3.88;;;2.55;;
15958;SDS011;8078;47.822;9.402;2023-07-22T07:24:17;3.97;;;2.80;;
15958;SDS011;8078;47.822;9.402;2023-07-22T07:26:42;3.67;;;2.70;;
15958;SDS011;8078;47.822;9.402;2023-07-22T07:29:08;3.88;;;2.38;;
15958;SDS011;8078;47.822;9.402;2023-07-22T07:31:33;4.28;;;2.45;;
15958;SDS011;8078;47.822;9.402;2023-07-22T07:33:59;3.75;;;3.03;;
15958;SDS011;8078;47.822;9.402;2023-07-22T07:36:25;3.60;;;2.50;;
15958;SDS011;8078;47.822;9.402;2023-07-22T07:38:50;5.57;;;2.70;;
15958;SDS011;8078;47.822;9.402;2023-07-22T07:41:16;3.60;;;2.65;;
15958;SDS011;8078;47.822;9.402;2023-07-22T07:43:41;3.13;;;2.60;;
15958;SDS011;8078;47.822;9.402;2023-07-22T07:46:14;4.05;;;2.63;;
15958;SDS011;8078;47.822;9.402;2023-07-22T07:48:53;3.25;;;2.60;;
15958;SDS011;8078;47.822;9.402;2023-07-22T07:51:21;5.15;;;2.60;;
15958;SDS011;8078;47.822;9.402;2023-07-22T07:53:49;6.45;;;2.60;;
15958;SDS011;8078;47.822;9.402;2023-07-22T07:56:15;4.55;;;2.45;;
15958;SDS011;8078;47.822;9.402;2023-07-22T07:58:42;2.95;;;2.50;;
15958;SDS011;8078;47.822;9.402;2023-07-22T08:01:09;4.15;;;2.80;;
15958;SDS011;8078;47.822;9.402;2023-07-22T08:03:35;2.95;;;2.30;;
15958;SDS011;8078;47.822;9.402;2023-07-22T08:06:01;3.05;;;2.47;;
15958;SDS011;8078;47.822;9.402;2023-07-22T08:08:28;4.95;;;2.35;;
15958;SDS011;8078;47.822;9.402;2023-07-22T08:11:04;3.05;;;2.67;;
15958;SDS011;8078;47.822;9.402;2023-07-22T08:13:32;3.97;;;2.88;;
15958;SDS011;8078;47.822;9.402;2023-07-22T08:16:01;3.55;;;3.00;;
15958;SDS011;8078;47.822;9.402;2023-07-22T08:18:28;4.57;;;3.05;;
15958;SDS011;8078;47.822;9.402;2023-07-22T08:20:54;5.10;;;2.72;;
15958;SDS011;8078;47.822;9.402;2023-07-22T08:23:20;4.85;;;2.78;;
15958;SDS011;8078;47.822;9.402;2023-07-22T08:25:46;5.72;;;3.10;;
15958;SDS011;8078;47.822;9.402;2023-07-22T08:28:12;3.90;;;3.08;;
15958;SDS011;8078;47.822;9.402;2023-07-22T08:30:38;4.63;;;2.83;;
15958;SDS011;8078;47.822;9.402;2023-07-22T08:33:05;5.07;;;2.80;;
15958;SDS011;8078;47.822;9.402;2023-07-22T08:35:33;4.07;;;2.75;;
15958;SDS011;8078;47.822;9.402;2023-07-22T08:37:59;3.55;;;2.60;;
15958;SDS011;8078;47.822;9.402;2023-07-22T08:40:27;3.65;;;2.72;;
15958;SDS011;8078;47.822;9.402;2023-07-22T08:42:52;4.80;;;2.90;;
15958;SDS011;8078;47.822;9.402;2023-07-22T08:45:19;8.82;;;3.08;;
15958;SDS011;8078;47.822;9.402;2023-07-22T08:47:46;4.00;;;3.13;;
15958;SDS011;8078;47.822;9.402;2023-07-22T08:50:15;3.35;;;2.90;;
15958;SDS011;8078;47.822;9.402;2023-07-22T08:52:44;4.05;;;2.60;;
15958;SDS011;8078;47.822;9.402;2023-07-22T08:55:11;4.13;;;2.83;;
15958;SDS011;8078;47.822;9.402;2023-07-22T08:57:37;3.13;;;2.60;;
15958;SDS011;8078;47.822;9.402;2023-07-22T09:00:04;4.47;;;2.50;;
15958;SDS011;8078;47.822;9.402;2023-07-22T09:02:33;2.65;;;2.03;;
15958;SDS011;8078;47.822;9.402;2023-07-22T09:04:59;3.90;;;2.30;;
15958;SDS011;8078;47.822;9.402;2023-07-22T09:07:25;3.50;;;2.10;;
15958;SDS011;8078;47.822;9.402;2023-07-22T09:09:51;3.50;;;2.50;;
15958;SDS011;8078;47.822;9.402;2023-07-22T09:12:18;2.67;;;2.15;;
15958;SDS011;8078;47.822;9.402;2023-07-22T09:14:46;2.47;;;1.73;;
15958;SDS011;8078;47.822;9.402;2023-07-22T09:17:13;7.47;;;2.20;;
15958;SDS011;8078;47.822;9.402;2023-07-22T09:19:38;2.67;;;2.20;;
15958;SDS011;8078;47.822;9.402;2023-07-22T09:22:04;3.20;;;2.70;;
15958;SDS011;8078;47.822;9.402;2023-07-22T09:24:30;3.47;;;2.40;;
15958;SDS011;8078;47.822;9.402;2023-07-22T09:26:55;2.38;;;1.92;;
15958;SDS011;8078;47.822;9.402;2023-07-22T09:29:35;3.75;;;2.03;;
15958;SDS011;8078;47.822;9.402;2023-07-22T09:32:02;3.47;;;2.15;;
15958;SDS011;8078;47.822;9.402;2023-07-22T09:34:28;2.67;;;2.20;;
15958;SDS011;8078;47.822;9.402;2023-07-22T09:36:54;2.53;;;2.10;;
15958;SDS011;8078;47.822;9.402;2023-07-22T09:39:21;4.55;;;2.33;;
15958;SDS011;8078;47.822;9.402;2023-07-22T09:41:48;2.85;;;2.30;;
15958;SDS011;8078;47.822;9.402;2023-07-22T09:44:14;5.07;;;2.55;;
15958;SDS011;8078;47.822;9.402;2023-07-22T09:46:40;2.60;;;2.22;;
15958;SDS011;8078;47.822;9.402;2023-07-22T09:49:07;4.65;;;2.63;;
15958;SDS011;8078;47.822;9.402;2023-07-22T09:51:37;3.08;;;2.13;;
15958;SDS011;8078;47.822;9.402;2023-07-22T09:54:04;2.72;;;2.35;;
15958;SDS011;8078;47.822;9.402;2023-07-22T09:56:31;3.53;;;2.65;;
15958;SDS011;8078;47.822;9.402;2023-07-22T09:58:58;5.00;;;2.60;;
15958;SDS011;8078;47.822;9.402;2023-07-22T10:01:24;3.95;;;2.35;;
15958;SDS011;8078;47.822;9.402;2023-07-22T10:03:54;3.83;;;2.45;;
15958;SDS011;8078;47.822;9.402;2023-07-22T10:06:23;3.17;;;2.70;;
15958;SDS011;8078;47.822;9.402;2023-07-22T10:08:51;3.30;;;2.30;;
15958;SDS011;8078;47.822;9.402;2023-07-22T10:11:17;2.45;;;2.08;;
15958;SDS011;8078;47.822;9.402;2023-07-22T10:13:43;3.08;;;2.30;;
15958;SDS011;8078;47.822;9.402;2023-07-22T10:16:10;3.13;;;1.83;;
15958;SDS011;8078;47.822;9.402;2023-07-22T10:18:37;3.75;;;2.05;;
15958;SDS011;8078;47.822;9.402;2023-07-22T10:21:06;3.13;;;2.15;;
15958;SDS011;8078;47.822;9.402;2023-07-22T10:23:32;2.15;;;1.95;;
15958;SDS011;8078;47.822;9.402;2023-07-22T10:25:58;2.80;;;1.83;;
15958;SDS011;8078;47.822;9.402;2023-07-22T10:28:25;3.05;;;1.98;;
15958;SDS011;8078;47.822;9.402;2023-07-22T10:30:51;4.28;;;2.10;;
15958;SDS011;8078;47.822;9.402;2023-07-22T10:33:18;4.93;;;1.98;;
15958;SDS011;8078;47.822;9.402;2023-07-22T10:35:43;2.13;;;1.92;;
15958;SDS011;8078;47.822;9.402;2023-07-22T10:38:28;3.90;;;2.42;;
15958;SDS011;8078;47.822;9.402;2023-07-22T10:40:54;2.45;;;2.20;;
15958;SDS011;8078;47.822;9.402;2023-07-22T10:43:24;2.67;;;1.92;;
15958;SDS011;8078;47.822;9.402;2023-07-22T10:45:52;4.85;;;2.10;;
15958;SDS011;8078;47.822;9.402;2023-07-22T10:48:19;4.70;;;1.95;;
15958;SDS011;8078;47.822;9.402;2023-07-22T10:50:47;3.83;;;2.00;;
15958;SDS011;8078;47.822;9.402;2023-07-22T10:56:10;2.50;;;2.10;;
15958;SDS011;8078;47.822;9.402;2023-07-22T11:01:23;11.60;;;2.45;;
15958;SDS011;8078;47.822;9.402;2023-07-22T11:06:39;2.55;;;2.20;;
15958;SDS011;8078;47.822;9.402;2023-07-22T11:14:24;2.95;;;2.42;;
15958;SDS011;8078;47.822;9.402;2023-07-22T11:16:51;3.13;;;2.60;;
15958;SDS011;8078;47.822;9.402;2023-07-22T11:19:18;3.88;;;2.30;;
15958;SDS011;8078;47.822;9.402;2023-07-22T11:21:46;2.90;;;2.17;;
15958;SDS011;8078;47.822;9.402;2023-07-22T11:24:12;6.15;;;2.17;;
15958;SDS011;8078;47.822;9.402;2023-07-22T11:26:39;2.30;;;2.10;;
15958;SDS011;8078;47.822;9.402;2023-07-22T11:29:06;3.42;;;2.40;;
15958;SDS011;8078;47.822;9.402;2023-07-22T11:31:34;3.13;;;2.30;;
15958;SDS011;8078;47.822;9.402;2023-07-22T11:34:02;4.53;;;2.42;;
15958;SDS011;8078;47.822;9.402;2023-07-22T11:36:28;2.90;;;2.10;;
15958;SDS011;8078;47.822;9.402;2023-07-22T11:39:00;5.10;;;2.35;;
15958;SDS011;8078;47.822;9.402;2023-07-22T11:41:30;2.72;;;2.10;;
15958;SDS011;8078;47.822;9.402;2023-07-22T11:43:59;3.13;;;2.13;;
15958;SDS011;8078;47.822;9.402;2023-07-22T11:46:26;3.63;;;2.15;;
15958;SDS011;8078;47.822;9.402;2023-07-22T11:48:53;2.47;;;2.00;;
15958;SDS011;8078;47.822;9.402;2023-07-22T11:51:20;2.95;;;1.95;;
15958;SDS011;8078;47.822;9.402;2023-07-22T11:53:48;4.25;;;2.47;;
15958;SDS011;8078;47.822;9.402;2023-07-22T11:56:18;2.92;;;2.30;;
15958;SDS011;8078;47.822;9.402;2023-07-22T11:58:55;2.53;;;2.00;;
15958;SDS011;8078;47.822;9.402;2023-07-22T12:01:21;3.22;;;2.20;;
15958;SDS011;8078;47.822;9.402;2023-07-22T12:03:56;2.75;;;2.50;;
15958;SDS011;8078;47.822;9.402;2023-07-22T12:06:24;3.15;;;2.45;;
15958;SDS011;8078;47.822;9.402;2023-07-22T12:08:51;4.70;;;2.80;;
15958;SDS011;8078;47.822;9.402;2023-07-22T12:11:18;3.95;;;2.58;;
15958;SDS011;8078;47.822;9.402;2023-07-22T12:13:44;3.17;;;2.20;;
15958;SDS011;8078;47.822;9.402;2023-07-22T12:16:11;3.08;;;2.47;;
15958;SDS011;8078;47.822;9.402;2023-07-22T12:18:42;3.95;;;2.42;;
15958;SDS011;8078;47.822;9.402;2023-07-22T12:21:12;2.60;;;2.40;;
15958;SDS011;8078;47.822;9.402;2023-07-22T12:23:39;3.20;;;2.30;;
15958;SDS011;8078;47.822;9.402;2023-07-22T12:26:05;3.47;;;2.45;;
15958;SDS011;8078;47.822;9.402;2023-07-22T12:28:30;5.85;;;2.47;;
15958;SDS011;8078;47.822;9.402;2023-07-22T12:30:56;4.75;;;2.60;;
15958;SDS011;8078;47.822;9.402;2023-07-22T12:33:25;4.65;;;2.30;;
15958;SDS011;8078;47.822;9.402;2023-07-22T12:35:53;2.75;;;2.13;;
15958;SDS011;8078;47.822;9.402;2023-07-22T12:38:19;4.78;;;2.30;;
15958;SDS011;8078;47.822;9.402;2023-07-22T12:40:44;2.65;;;2.25;;
15958;SDS011;8078;47.822;9.402;2023-07-22T12:43:10;2.63;;;2.20;;
15958;SDS011;8078;47.822;9.402;2023-07-22T12:45:36;5.40;;;2.60;;
15958;SDS011;8078;47.822;9.402;2023-07-22T12:48:01;2.50;;;2.30;;
15958;SDS011;8078;47.822;9.402;2023-07-22T12:50:29;4.22;;;2.65;;
15958;SDS011;8078;47.822;9.402;2023-07-22T12:52:55;5.07;;;2.30;;
15958;SDS011;8078;47.822;9.402;2023-07-22T12:55:20;2.70;;;2.50;;
15958;SDS011;8078;47.822;9.402;2023-07-22T12:57:46;2.63;;;2.22;;
15958;SDS011;8078;47.822;9.402;2023-07-22T13:00:11;3.28;;;2.60;;
15958;SDS011;8078;47.822;9.402;2023-07-22T13:02:37;3.58;;;2.58;;
15958;SDS011;8078;47.822;9.402;2023-07-22T13:05:04;2.70;;;2.17;;
15958;SDS011;8078;47.822;9.402;2023-07-22T13:07:31;3.47;;;2.30;;
15958;SDS011;8078;47.822;9.402;2023-07-22T13:09:57;4.47;;;2.42;;
15958;SDS011;8078;47.822;9.402;2023-07-22T13:12:25;2.88;;;2.58;;
15958;SDS011;8078;47.822;9.402;2023-07-22T13:14:51;3.72;;;2.05;;
15958;SDS011;8078;47.822;9.402;2023-07-22T13:17:16;3.28;;;2.67;;
15958;SDS011;8078;47.822;9.402;2023-07-22T13:19:42;3.33;;;2.45;;
15958;SDS011;8078;47.822;9.402;2023-07-22T13:22:07;3.05;;;2.55;;
15958;SDS011;8078;47.822;9.402;2023-07-22T13:24:33;4.00;;;2.40;;
15958;SDS011;8078;47.822;9.402;2023-07-22T13:26:58;3.17;;;2.53;;
15958;SDS011;8078;47.822;9.402;2023-07-22T13:29:24;2.90;;;2.47;;
15958;SDS011;8078;47.822;9.402;2023-07-22T13:31:50;3.13;;;2.47;;
15958;SDS011;8078;47.822;9.402;2023-07-22T13:34:15;3.42;;;2.53;;
15958;SDS011;8078;47.822;9.402;2023-07-22T13:36:41;3.72;;;2.58;;
15958;SDS011;8078;47.822;9.402;2023-07-22T13:39:06;3.08;;;2.35;;
15958;SDS011;8078;47.822;9.402;2023-07-22T13:41:32;2.50;;;2.30;;
15958;SDS011;8078;47.822;9.402;2023-07-22T13:43:57;3.10;;;2.20;;
15958;SDS011;8078;47.822;9.402;2023-07-22T13:46:23;2.65;;;2.30;;
15958;SDS011;8078;47.822;9.402;2023-07-22T13:48:48;2.40;;;2.15;;
15958;SDS011;8078;47.822;9.402;2023-07-22T13:51:14;3.17;;;2.30;;
15958;SDS011;8078;47.822;9.402;2023-07-22T13:53:39;3.00;;;2.30;;
15958;SDS011;8078;47.822;9.402;2023-07-22T13:56:05;3.63;;;2.67;;
15958;SDS011;8078;47.822;9.402;2023-07-22T13:58:30;2.88;;;2.33;;
15958;SDS011;8078;47.822;9.402;2023-07-22T14:00:56;4.47;;;2.03;;
15958;SDS011;8078;47.822;9.402;2023-07-22T14:03:22;3.20;;;2.35;;
15958;SDS011;8078;47.822;9.402;2023-07-22T14:05:47;3.45;;;2.60;;
15958;SDS011;8078;47.822;9.402;2023-07-22T14:08:13;2.75;;;2.47;;
15958;SDS011;8078;47.822;9.402;2023-07-22T14:10:38;3.78;;;2.70;;
15958;SDS011;8078;47.822;9.402;2023-07-22T14:13:04;4.13;;;2.40;;
15958;SDS011;8078;47.822;9.402;2023-07-22T14:15:29;4.82;;;1.98;;
15958;SDS011;8078;47.822;9.402;2023-07-22T14:17:55;4.95;;;2.95;;
15958;SDS011;8078;47.822;9.402;2023-07-22T14:20:20;3.95;;;2.50;;
15958;SDS011;8078;47.822;9.402;2023-07-22T14:22:47;3.75;;;2.83;;
15958;SDS011;8078;47.822;9.402;2023-07-22T14:25:14;3.35;;;2.88;;
15958;SDS011;8078;47.822;9.402;2023-07-22T14:27:40;4.18;;;2.53;;
15958;SDS011;8078;47.822;9.402;2023-07-22T14:30:06;2.53;;;2.30;;
15958;SDS011;8078;47.822;9.402;2023-07-22T14:32:33;3.60;;;2.40;;
15958;SDS011;8078;47.822;9.402;2023-07-22T14:34:59;4.75;;;2.33;;
15958;SDS011;8078;47.822;9.402;2023-07-22T14:37:24;4.03;;;2.60;;
15958;SDS011;8078;47.822;9.402;2023-07-22T14:39:50;2.33;;;2.10;;
15958;SDS011;8078;47.822;9.402;2023-07-22T14:42:15;4.28;;;2.25;;
15958;SDS011;8078;47.822;9.402;2023-07-22T14:44:41;2.25;;;2.05;;
15958;SDS011;8078;47.822;9.402;2023-07-22T14:47:06;3.47;;;2.53;;
15958;SDS011;8078;47.822;9.402;2023-07-22T14:49:32;3.55;;;2.88;;
15958;SDS011;8078;47.822;9.402;2023-07-22T14:51:57;3.42;;;2.72;;
15958;SDS011;8078;47.822;9.402;2023-07-22T14:54:23;3.03;;;2.38;;
15958;SDS011;8078;47.822;9.402;2023-07-22T14:56:48;6.25;;;2.40;;
15958;SDS011;8078;47.822;9.402;2023-07-22T14:59:14;4.95;;;2.70;;
15958;SDS011;8078;47.822;9.402;2023-07-22T15:01:41;3.42;;;2.67;;
15958;SDS011;8078;47.822;9.402;2023-07-22T15:04:09;4.97;;;2.53;;
15958;SDS011;8078;47.822;9.402;2023-07-22T15:06:35;3.55;;;2.80;;
15958;SDS011;8078;47.822;9.402;2023-07-22T15:09:01;3.28;;;2.45;;